Time;durP1;ratioP1;P1;durP2;ratioP2;P2;SDS_P1;SDS_P2;PMS_P1;PMS_P2;Temp;Humidity;BMP_temperature;BMP_pressure;BME280_temperature;BME280_humidity;BME280_pressure;Samples;Min_cycle;Max_cycle;Signal;HPM_P1;HPM_P2
2020/12/16 00:01:08;;;;;;;15.88;8.80;;;8.80;86.70;;;;;;5033554;28;20407;-66
2020/12/16 00:03:34;;;;;;;13.25;8.52;;;8.70;86.60;;;;;;5033644;28;20041;-66
2020/12/16 00:06:00;;;;;;;13.95;8.73;;;8.70;86.70;;;;;;5033743;28;20422;-66
2020/12/16 00:08:26;;;;;;;13.90;9.10;;;8.60;86.80;;;;;;5033623;28;20117;-66
2020/12/16 00:10:51;;;;;;;14.70;9.00;;;8.60;87.60;;;;;;5033399;28;20530;-66
2020/12/16 00:13:17;;;;;;;14.35;9.13;;;8.70;87.20;;;;;;5033750;28;20030;-66
2020/12/16 00:15:44;;;;;;;14.93;8.90;;;8.80;87.00;;;;;;5032508;28;20034;-66
2020/12/16 00:18:10;;;;;;;10.63;8.45;;;8.80;86.80;;;;;;5033646;28;20024;-66
2020/12/16 00:20:36;;;;;;;15.95;9.60;;;8.80;86.70;;;;;;5033138;28;20029;-66
2020/12/16 00:23:01;;;;;;;14.23;8.77;;;8.80;86.70;;;;;;5032676;28;20041;-66
2020/12/16 00:25:27;;;;;;;15.40;8.40;;;8.80;86.80;;;;;;5033534;28;20041;-66
2020/12/16 00:27:52;;;;;;;12.55;8.48;;;8.90;86.80;;;;;;5033046;28;20064;-66
2020/12/16 00:30:18;;;;;;;12.77;8.63;;;8.80;86.70;;;;;;5032266;28;20077;-66
2020/12/16 00:32:44;;;;;;;12.50;7.70;;;8.90;86.90;;;;;;5033537;28;20030;-65
2020/12/16 00:35:09;;;;;;;11.40;8.40;;;8.90;86.90;;;;;;5033326;28;20104;-66
2020/12/16 00:37:40;;;;;;;13.43;8.30;;;8.90;86.70;;;;;;5033457;28;20037;-66
2020/12/16 00:40:13;;;;;;;17.10;8.60;;;8.90;86.60;;;;;;5027988;28;20037;-66
2020/12/16 00:42:39;;;;;;;13.40;7.95;;;8.80;86.50;;;;;;5030010;28;20108;-66
2020/12/16 00:45:06;;;;;;;15.75;8.02;;;8.80;86.60;;;;;;5029437;28;20399;-66
2020/12/16 00:47:33;;;;;;;12.98;7.93;;;8.60;86.50;;;;;;5033686;28;20021;-66
2020/12/16 00:49:59;;;;;;;14.00;8.88;;;8.60;86.80;;;;;;5028023;28;20053;-65
2020/12/16 00:52:27;;;;;;;13.32;8.52;;;8.50;87.00;;;;;;5010876;28;20470;-64
2020/12/16 00:54:52;;;;;;;15.25;8.90;;;8.40;87.30;;;;;;5028632;28;20033;-65
2020/12/16 00:57:19;;;;;;;15.05;9.82;;;8.40;87.30;;;;;;5014904;28;20037;-65
2020/12/16 00:59:44;;;;;;;15.23;9.43;;;8.40;87.50;;;;;;5031879;28;20048;-64
2020/12/16 01:02:10;;;;;;;13.95;9.10;;;8.40;87.50;;;;;;5032655;28;20498;-65
2020/12/16 01:04:35;;;;;;;15.45;9.50;;;8.40;87.40;;;;;;5032628;28;20116;-64
2020/12/16 01:07:01;;;;;;;15.20;9.93;;;8.40;87.40;;;;;;5014825;28;20061;-64
2020/12/16 01:09:26;;;;;;;14.65;9.10;;;8.40;87.40;;;;;;5033024;28;20021;-64
2020/12/16 01:11:52;;;;;;;14.48;8.90;;;8.40;87.40;;;;;;5032950;28;20030;-64
2020/12/16 01:14:18;;;;;;;14.20;9.57;;;8.40;87.50;;;;;;5032899;28;20025;-64
2020/12/16 01:16:43;;;;;;;15.82;9.77;;;8.40;87.40;;;;;;5032404;28;20040;-64
2020/12/16 01:19:09;;;;;;;14.52;9.68;;;8.40;87.40;;;;;;5032543;28;20378;-65
2020/12/16 01:21:39;;;;;;;15.95;9.60;;;8.30;87.40;;;;;;5032312;28;20033;-64
2020/12/16 01:24:08;;;;;;;14.27;9.43;;;8.30;87.30;;;;;;5033301;28;20478;-64
2020/12/16 01:26:46;;;;;;;17.60;10.30;;;8.30;87.40;;;;;;5031568;28;20040;-64
2020/12/16 01:29:15;;;;;;;15.25;10.13;;;8.30;87.60;;;;;;5032223;28;20021;-64
2020/12/16 01:31:43;;;;;;;15.10;10.23;;;8.20;87.60;;;;;;5032348;28;20179;-65
2020/12/16 01:34:10;;;;;;;16.65;10.85;;;8.20;87.60;;;;;;5032445;28;20382;-64
2020/12/16 01:36:45;;;;;;;21.15;10.75;;;8.30;87.70;;;;;;5032207;28;20025;-64
2020/12/16 01:39:12;;;;;;;17.30;9.95;;;8.20;87.60;;;;;;5032374;28;20033;-64
2020/12/16 01:41:47;;;;;;;15.30;9.68;;;8.20;87.50;;;;;;5032343;28;20037;-64
2020/12/16 01:44:15;;;;;;;16.85;9.70;;;8.10;87.50;;;;;;5032333;28;20044;-64
2020/12/16 01:46:52;;;;;;;15.80;10.07;;;8.10;87.60;;;;;;5031810;28;20453;-64
2020/12/16 01:49:19;;;;;;;15.88;9.30;;;8.10;87.70;;;;;;5029798;28;20021;-64
2020/12/16 01:51:45;;;;;;;15.52;9.63;;;8.10;87.80;;;;;;5031559;28;20025;-64
2020/12/16 01:54:14;;;;;;;16.10;9.75;;;8.10;87.70;;;;;;5032557;28;20025;-64
2020/12/16 01:56:41;;;;;;;16.48;9.32;;;8.10;87.70;;;;;;5030872;28;20075;-64
2020/12/16 01:59:14;;;;;;;16.75;10.23;;;8.00;87.80;;;;;;5014039;28;20490;-64
2020/12/16 02:01:41;;;;;;;15.30;10.07;;;8.00;87.80;;;;;;5031881;28;20080;-65
2020/12/16 02:04:10;;;;;;;15.98;10.05;;;7.90;87.70;;;;;;5032018;28;20038;-64
2020/12/16 02:06:36;;;;;;;14.30;10.02;;;7.90;87.80;;;;;;5031155;28;20041;-64
2020/12/16 02:09:12;;;;;;;15.32;9.48;;;7.90;87.80;;;;;;5031514;28;20029;-65
2020/12/16 02:11:40;;;;;;;15.43;9.82;;;7.90;87.80;;;;;;5031960;28;20033;-64
2020/12/16 02:14:09;;;;;;;16.30;10.93;;;7.80;87.60;;;;;;5032393;28;20370;-64
2020/12/16 02:16:36;;;;;;;16.13;10.38;;;7.80;87.60;;;;;;5031384;28;20033;-64
2020/12/16 02:19:04;;;;;;;14.80;9.98;;;7.80;87.50;;;;;;5032351;28;20060;-65
2020/12/16 02:21:29;;;;;;;21.38;10.82;;;7.70;87.50;;;;;;5031387;28;20466;-64
2020/12/16 02:24:10;;;;;;;15.93;10.02;;;7.60;87.60;;;;;;5031710;28;20054;-64
2020/12/16 02:26:39;;;;;;;15.93;9.82;;;7.60;87.80;;;;;;5031436;28;20029;-64
2020/12/16 02:29:06;;;;;;;19.27;10.60;;;7.50;87.80;;;;;;5030569;28;20049;-65
2020/12/16 02:31:34;;;;;;;15.02;9.75;;;7.50;87.80;;;;;;5031768;28;20419;-64
2020/12/16 02:34:00;;;;;;;17.15;10.45;;;7.50;87.80;;;;;;5031365;28;20029;-64
2020/12/16 02:36:26;;;;;;;17.58;10.20;;;7.40;87.70;;;;;;5025842;28;20482;-65
2020/12/16 02:38:54;;;;;;;16.77;9.80;;;7.30;87.80;;;;;;5031217;28;20049;-65
2020/12/16 02:41:23;;;;;;;19.27;10.93;;;7.30;87.90;;;;;;5017306;28;20036;-64
2020/12/16 02:43:49;;;;;;;16.27;10.48;;;7.30;87.90;;;;;;5017326;28;20037;-65
2020/12/16 02:46:15;;;;;;;16.67;10.88;;;7.30;87.90;;;;;;5035998;28;20397;-64
2020/12/16 02:48:41;;;;;;;15.80;11.02;;;7.30;88.10;;;;;;5034947;28;20038;-65
2020/12/16 02:51:07;;;;;;;15.77;10.43;;;7.30;88.00;;;;;;5034814;28;20032;-65
2020/12/16 02:53:32;;;;;;;19.98;11.75;;;7.40;87.90;;;;;;5035498;28;20077;-64
2020/12/16 02:55:58;;;;;;;18.15;10.40;;;7.30;87.50;;;;;;5031577;28;20042;-64
2020/12/16 02:58:24;;;;;;;19.15;11.88;;;7.30;87.40;;;;;;5035682;28;20056;-64
2020/12/16 03:00:50;;;;;;;19.55;11.75;;;7.30;87.40;;;;;;5034614;28;20021;-65
2020/12/16 03:03:16;;;;;;;23.60;12.20;;;7.20;87.60;;;;;;5034823;28;20045;-64
2020/12/16 03:05:42;;;;;;;19.35;11.18;;;7.10;87.60;;;;;;5035314;28;20500;-64
2020/12/16 03:08:10;;;;;;;17.77;11.43;;;7.10;87.70;;;;;;5016789;28;20028;-64
2020/12/16 03:10:38;;;;;;;19.42;11.95;;;7.00;87.60;;;;;;5034566;28;20032;-64
2020/12/16 03:13:05;;;;;;;21.00;11.32;;;7.00;87.70;;;;;;5017370;28;20486;-64
2020/12/16 03:15:32;;;;;;;16.40;11.10;;;6.90;87.70;;;;;;5034756;28;20041;-64
2020/12/16 03:17:57;;;;;;;20.23;11.45;;;6.80;87.70;;;;;;5016659;28;20072;-64
2020/12/16 03:20:23;;;;;;;18.02;11.25;;;6.80;87.70;;;;;;5034574;28;20034;-65
2020/12/16 03:22:48;;;;;;;18.88;11.95;;;6.70;87.80;;;;;;5034579;28;20041;-64
2020/12/16 03:25:14;;;;;;;20.40;11.95;;;6.60;87.80;;;;;;5034098;28;20033;-64
2020/12/16 03:27:40;;;;;;;19.35;11.48;;;6.60;88.00;;;;;;5034698;28;20037;-64
2020/12/16 03:30:06;;;;;;;23.48;10.98;;;6.60;88.10;;;;;;5034460;28;20362;-64
2020/12/16 03:32:32;;;;;;;19.95;11.73;;;6.50;88.00;;;;;;5034173;28;20402;-64
2020/12/16 03:34:58;;;;;;;17.92;11.15;;;6.50;88.00;;;;;;5034777;28;20080;-64
2020/12/16 03:37:23;;;;;;;19.92;11.52;;;6.50;88.00;;;;;;5034474;28;20037;-64
2020/12/16 03:39:49;;;;;;;18.13;11.85;;;6.50;88.10;;;;;;5034251;28;20025;-64
2020/12/16 03:42:14;;;;;;;17.80;10.95;;;6.50;88.10;;;;;;5034429;28;20025;-64
2020/12/16 03:44:40;;;;;;;16.42;10.60;;;6.50;88.10;;;;;;5034117;28;20025;-65
2020/12/16 03:47:05;;;;;;;18.35;11.30;;;6.50;88.20;;;;;;5032118;28;20050;-64
2020/12/16 03:49:31;;;;;;;20.17;11.32;;;6.50;88.20;;;;;;5032922;28;20099;-65
2020/12/16 03:51:57;;;;;;;17.45;11.05;;;6.50;88.20;;;;;;5033429;28;20034;-64
2020/12/16 03:54:23;;;;;;;19.20;11.18;;;6.50;88.00;;;;;;5031101;28;20045;-64
2020/12/16 03:56:49;;;;;;;17.48;10.90;;;6.50;87.80;;;;;;5033774;28;20451;-65
2020/12/16 03:59:15;;;;;;;17.73;11.00;;;6.50;87.70;;;;;;5011237;28;20065;-65
2020/12/16 04:01:41;;;;;;;17.70;10.95;;;6.40;87.70;;;;;;5022844;28;20394;-65
2020/12/16 04:04:07;;;;;;;15.52;10.07;;;6.40;87.80;;;;;;5015806;28;20025;-64
2020/12/16 04:06:33;;;;;;;20.70;11.05;;;6.40;87.80;;;;;;5033519;28;20037;-65
2020/12/16 04:08:58;;;;;;;19.52;11.60;;;6.40;87.70;;;;;;5033611;28;20051;-64
2020/12/16 04:11:24;;;;;;;22.13;11.90;;;6.30;87.70;;;;;;5032711;28;20112;-65
2020/12/16 04:13:49;;;;;;;20.15;11.85;;;6.30;87.70;;;;;;5033493;28;20021;-65
2020/12/16 04:16:19;;;;;;;18.05;11.52;;;6.30;87.80;;;;;;5032685;28;20095;-64
2020/12/16 04:18:45;;;;;;;19.08;11.90;;;6.20;87.80;;;;;;5033324;28;20036;-63
2020/12/16 04:21:11;;;;;;;19.08;11.88;;;6.20;88.00;;;;;;5031832;28;20482;-64
2020/12/16 04:23:37;;;;;;;22.73;12.60;;;6.20;88.10;;;;;;5031914;28;20083;-64
2020/12/16 04:26:03;;;;;;;20.10;12.38;;;6.20;88.20;;;;;;5015022;28;20033;-64
2020/12/16 04:28:29;;;;;;;17.73;11.38;;;6.30;88.30;;;;;;5033213;28;20026;-64
2020/12/16 04:30:54;;;;;;;16.92;11.23;;;6.30;88.60;;;;;;5032900;28;20028;-64
2020/12/16 04:33:20;;;;;;;22.85;11.43;;;6.40;88.10;;;;;;5033787;28;20048;-64
2020/12/16 04:35:46;;;;;;;31.60;11.63;;;6.40;88.00;;;;;;5033434;28;20420;-64
2020/12/16 04:38:12;;;;;;;18.95;11.30;;;6.40;88.00;;;;;;5032518;28;20406;-64
2020/12/16 04:40:38;;;;;;;23.70;11.70;;;6.40;88.00;;;;;;5033216;28;20036;-64
2020/12/16 04:43:06;;;;;;;24.98;12.73;;;6.50;88.00;;;;;;5015086;28;20029;-64
2020/12/16 04:45:36;;;;;;;29.30;12.60;;;6.40;87.90;;;;;;5033490;28;20025;-64
2020/12/16 04:48:02;;;;;;;23.42;12.10;;;6.40;87.80;;;;;;5033234;28;20395;-64
2020/12/16 04:50:28;;;;;;;23.77;12.70;;;6.40;88.00;;;;;;5032583;28;20041;-64
2020/12/16 04:52:53;;;;;;;30.45;13.60;;;6.50;88.10;;;;;;5033102;28;20539;-64
2020/12/16 04:55:20;;;;;;;46.88;13.48;;;6.50;88.00;;;;;;5032722;28;20033;-64
2020/12/16 04:57:51;;;;;;;34.55;14.27;;;6.50;88.40;;;;;;5033123;28;20457;-64
2020/12/16 05:00:21;;;;;;;37.00;13.52;;;6.50;88.30;;;;;;5032239;28;20034;-64
2020/12/16 05:02:58;;;;;;;36.65;13.82;;;6.50;88.30;;;;;;5032489;28;20033;-64
2020/12/16 05:05:24;;;;;;;37.80;14.75;;;6.60;88.40;;;;;;5033431;28;20385;-64
2020/12/16 05:07:51;;;;;;;32.80;14.15;;;6.60;88.30;;;;;;5032421;28;20049;-64
2020/12/16 05:10:34;;;;;;;38.53;15.07;;;6.70;88.30;;;;;;5032515;28;20037;-64
2020/12/16 05:13:11;;;;;;;41.45;15.90;;;6.80;88.10;;;;;;5032480;28;20026;-64
2020/12/16 05:15:38;;;;;;;32.88;14.27;;;6.90;87.90;;;;;;5032751;28;20025;-64
2020/12/16 05:18:16;;;;;;;36.90;14.88;;;7.00;87.80;;;;;;5032263;28;20036;-64
2020/12/16 05:20:44;;;;;;;43.70;14.50;;;7.00;87.70;;;;;;5032272;28;20025;-64
2020/12/16 05:23:11;;;;;;;47.47;15.85;;;7.10;87.60;;;;;;5014189;28;20045;-64
2020/12/16 05:25:37;;;;;;;48.15;15.45;;;7.10;87.40;;;;;;5014642;28;20033;-64
2020/12/16 05:28:05;;;;;;;44.92;15.43;;;7.20;87.30;;;;;;5031495;28;20052;-64
2020/12/16 05:30:31;;;;;;;44.45;16.02;;;7.20;87.20;;;;;;5032347;28;20029;-62
2020/12/16 05:33:01;;;;;;;46.30;15.88;;;7.10;87.00;;;;;;5032111;28;20030;-62
2020/12/16 05:35:29;;;;;;;49.38;15.77;;;7.10;87.30;;;;;;5024333;28;20073;-64
2020/12/16 05:38:00;;;;;;;47.13;15.10;;;7.10;87.40;;;;;;5032364;28;20480;-64
2020/12/16 05:40:26;;;;;;;35.60;14.35;;;7.10;87.60;;;;;;5014239;28;20029;-64
2020/12/16 05:42:51;;;;;;;36.13;14.45;;;7.10;87.60;;;;;;5032287;28;20105;-64
2020/12/16 05:45:22;;;;;;;31.88;13.48;;;7.00;87.50;;;;;;5026650;28;20068;-64
2020/12/16 05:48:05;;;;;;;29.23;13.55;;;6.90;87.60;;;;;;5014932;28;20032;-64
2020/12/16 05:50:44;;;;;;;26.35;12.88;;;7.00;87.90;;;;;;5030316;28;20032;-64
2020/12/16 05:53:11;;;;;;;26.35;13.45;;;7.00;87.80;;;;;;5032325;28;20039;-64
2020/12/16 05:55:37;;;;;;;24.75;13.35;;;7.00;87.80;;;;;;5014500;28;20033;-64
2020/12/16 05:58:07;;;;;;;21.00;12.48;;;7.10;87.70;;;;;;5032356;28;20030;-64
2020/12/16 06:00:48;;;;;;;25.42;12.20;;;7.10;87.60;;;;;;5031639;28;20061;-64
2020/12/16 06:03:33;;;;;;;18.80;11.38;;;7.10;87.50;;;;;;5032152;28;20021;-64
2020/12/16 06:06:04;;;;;;;19.60;12.07;;;7.10;87.30;;;;;;5032325;28;20132;-64
2020/12/16 06:08:41;;;;;;;19.60;12.18;;;7.10;87.50;;;;;;5031872;28;20029;-64
2020/12/16 06:11:11;;;;;;;18.48;11.25;;;7.10;87.50;;;;;;5012675;28;20490;-64
2020/12/16 06:13:38;;;;;;;21.00;11.30;;;7.10;87.40;;;;;;5031808;28;20040;-64
2020/12/16 06:16:06;;;;;;;19.80;11.55;;;7.10;87.30;;;;;;5035205;28;20028;-64
2020/12/16 06:18:37;;;;;;;18.33;11.25;;;7.10;87.20;;;;;;5035611;28;20111;-64
2020/12/16 06:21:04;;;;;;;17.65;11.00;;;7.10;87.10;;;;;;5035851;28;20025;-64
2020/12/16 06:23:41;;;;;;;20.67;12.02;;;7.00;87.10;;;;;;5017499;28;20471;-64
2020/12/16 06:26:14;;;;;;;19.88;13.32;;;6.90;87.20;;;;;;5034502;28;20037;-64
2020/12/16 06:28:41;;;;;;;20.65;12.57;;;6.90;87.30;;;;;;5035894;28;20080;-64
2020/12/16 06:31:25;;;;;;;22.15;12.18;;;6.90;87.40;;;;;;5034878;28;20037;-64
2020/12/16 06:33:59;;;;;;;22.85;12.18;;;6.90;87.50;;;;;;5035622;28;20037;-64
2020/12/16 06:36:31;;;;;;;20.70;12.30;;;6.90;87.50;;;;;;5034902;28;20418;-63
2020/12/16 06:38:58;;;;;;;20.57;12.67;;;6.90;87.70;;;;;;5035807;28;20021;-64
2020/12/16 06:41:33;;;;;;;19.27;11.60;;;6.90;87.60;;;;;;5035537;28;20080;-64
2020/12/16 06:44:11;;;;;;;23.60;12.57;;;6.90;87.40;;;;;;5031580;28;20042;-64
2020/12/16 06:46:40;;;;;;;20.75;11.65;;;7.00;87.50;;;;;;5035234;28;20033;-64
2020/12/16 06:49:24;;;;;;;19.60;12.40;;;7.00;87.50;;;;;;5034668;28;20125;-64
2020/12/16 06:52:07;;;;;;;22.40;12.13;;;7.10;87.50;;;;;;5035711;28;20013;-64
2020/12/16 06:54:40;;;;;;;21.90;12.27;;;7.10;87.40;;;;;;5034830;28;20030;-65
2020/12/16 06:57:15;;;;;;;30.25;17.83;;;7.10;87.30;;;;;;5035771;28;20524;-64
2020/12/16 07:00:02;;;;;;;21.83;13.90;;;7.10;87.10;;;;;;5015113;28;20041;-64
2020/12/16 07:02:36;;;;;;;21.02;13.45;;;7.10;87.10;;;;;;5018349;28;20717;-63
2020/12/16 07:05:05;;;;;;;19.90;12.10;;;7.10;87.20;;;;;;5035583;28;20028;-64
2020/12/16 07:07:45;;;;;;;18.23;11.45;;;7.00;87.20;;;;;;5034507;28;20382;-63
2020/12/16 07:10:32;;;;;;;18.55;11.00;;;7.00;87.20;;;;;;5034989;28;20103;-64
2020/12/16 07:13:27;;;;;;;17.20;10.88;;;6.90;87.20;;;;;;5021641;28;20108;-64
2020/12/16 07:16:00;;;;;;;20.38;11.98;;;6.90;87.40;;;;;;5017553;28;20021;-64
2020/12/16 07:18:40;;;;;;;;;;;6.90;87.50;;;;;;5035367;28;20114;-64
2020/12/16 07:21:08;;;;;;;20.17;11.10;;;6.80;87.30;;;;;;5034163;28;19909;-65
2020/12/16 07:23:57;;;;;;;20.42;12.48;;;6.70;87.30;;;;;;5034675;28;20029;-64
2020/12/16 07:26:48;;;;;;;22.60;11.95;;;6.70;87.60;;;;;;5031733;28;20116;-64
2020/12/16 07:29:24;;;;;;;18.88;11.88;;;6.60;87.70;;;;;;5034424;28;20100;-64
2020/12/16 07:32:14;;;;;;;24.17;13.63;;;6.60;87.70;;;;;;5034245;28;20026;-64
2020/12/16 07:34:52;;;;;;;20.70;12.77;;;6.60;88.00;;;;;;5034603;28;20057;-64
2020/12/16 07:37:23;;;;;;;24.85;13.13;;;6.70;88.00;;;;;;5034257;28;20409;-64
2020/12/16 07:39:55;;;;;;;21.25;13.43;;;6.70;88.10;;;;;;5033802;28;20037;-64
2020/12/16 07:42:25;;;;;;;22.77;13.23;;;6.80;88.10;;;;;;5033873;28;20041;-65
2020/12/16 07:44:50;;;;;;;22.15;12.57;;;6.80;87.90;;;;;;5034438;28;20032;-64
2020/12/16 07:47:18;;;;;;;21.30;13.05;;;6.80;87.70;;;;;;5025440;28;20034;-65
2020/12/16 07:49:44;;;;;;;25.40;12.05;;;6.80;87.70;;;;;;5033931;28;20018;-64
2020/12/16 07:52:10;;;;;;;23.50;12.95;;;6.80;87.70;;;;;;5034027;28;20490;-64
2020/12/16 07:54:36;;;;;;;22.95;12.43;;;6.80;87.80;;;;;;5034187;28;20029;-64
2020/12/16 07:57:03;;;;;;;23.75;12.35;;;6.80;87.80;;;;;;5016582;28;20064;-65
2020/12/16 07:59:33;;;;;;;26.58;14.15;;;6.80;87.90;;;;;;5033346;28;20048;-64
2020/12/16 08:02:09;;;;;;;32.70;14.00;;;6.80;87.90;;;;;;5034302;28;20036;-64
2020/12/16 08:04:36;;;;;;;27.92;14.85;;;6.80;87.90;;;;;;5033586;28;20052;-64
2020/12/16 08:07:19;;;;;;;30.08;13.35;;;6.80;87.80;;;;;;5033754;28;20029;-64
2020/12/16 08:10:00;;;;;;;26.50;12.60;;;6.80;87.90;;;;;;5033839;28;20029;-65
2020/12/16 08:12:28;;;;;;;24.40;12.63;;;6.80;87.90;;;;;;5034025;28;20021;-64
2020/12/16 08:15:05;;;;;;;25.58;13.15;;;6.80;87.80;;;;;;5033583;28;20029;-65
2020/12/16 08:17:36;;;;;;;23.60;12.55;;;6.80;87.90;;;;;;5033810;28;20018;-64
2020/12/16 08:20:13;;;;;;;22.70;13.82;;;6.80;87.80;;;;;;5033719;28;20486;-65
2020/12/16 08:22:40;;;;;;;23.67;12.90;;;6.80;88.00;;;;;;5033133;28;20061;-64
2020/12/16 08:25:10;;;;;;;22.88;13.13;;;6.80;87.90;;;;;;5034580;28;20036;-64
2020/12/16 08:27:37;;;;;;;22.60;13.57;;;6.80;87.90;;;;;;5036992;28;20032;-64
2020/12/16 08:30:06;;;;;;;25.90;14.63;;;6.90;88.00;;;;;;5033872;28;20041;-64
2020/12/16 08:32:41;;;;;;;25.30;13.73;;;6.80;87.90;;;;;;5014964;28;20038;-64
2020/12/16 08:35:17;;;;;;;23.17;14.50;;;6.90;88.00;;;;;;5033340;28;20030;-64
2020/12/16 08:37:47;;;;;;;25.52;15.13;;;6.90;88.10;;;;;;5026409;28;20034;-65
2020/12/16 08:40:14;;;;;;;22.35;13.45;;;7.00;88.10;;;;;;5033017;28;20037;-65
2020/12/16 08:42:40;;;;;;;26.20;14.77;;;7.00;87.90;;;;;;5033070;28;20025;-64
2020/12/16 08:45:08;;;;;;;22.85;13.93;;;7.10;87.80;;;;;;5033230;28;20096;-66
2020/12/16 08:47:36;;;;;;;23.98;14.32;;;7.10;87.80;;;;;;5032774;28;20037;-65
2020/12/16 08:50:03;;;;;;;26.38;13.85;;;7.20;87.80;;;;;;5026372;28;20020;-65
2020/12/16 08:52:39;;;;;;;23.23;13.60;;;7.20;87.60;;;;;;5032324;28;20034;-66
2020/12/16 08:55:35;;;;;;;24.55;13.20;;;7.20;87.60;;;;;;5032332;28;20490;-66
2020/12/16 08:58:01;;;;;;;21.63;12.82;;;7.20;87.50;;;;;;5013767;28;20091;-66
2020/12/16 09:00:36;;;;;;;21.27;12.75;;;7.20;87.50;;;;;;5032532;28;20120;-66
2020/12/16 09:03:08;;;;;;;26.45;14.93;;;7.20;87.50;;;;;;5032332;28;20045;-65
2020/12/16 09:05:36;;;;;;;23.63;14.35;;;7.10;87.50;;;;;;5032576;28;20033;-66
2020/12/16 09:08:14;;;;;;;22.30;13.43;;;7.10;87.50;;;;;;5032591;28;20025;-65
2020/12/16 09:10:41;;;;;;;29.35;15.07;;;7.10;87.50;;;;;;5032271;28;20034;-65
2020/12/16 09:13:20;;;;;;;33.95;14.90;;;7.10;87.50;;;;;;5032079;28;20029;-65
2020/12/16 09:15:50;;;;;;;30.02;14.13;;;7.10;87.60;;;;;;5014963;28;20025;-65
2020/12/16 09:18:28;;;;;;;26.60;15.45;;;7.10;87.60;;;;;;5032037;28;20112;-65
2020/12/16 09:20:56;;;;;;;25.88;15.25;;;7.20;87.80;;;;;;5032144;28;20075;-65
2020/12/16 09:23:27;;;;;;;27.55;15.85;;;7.20;87.70;;;;;;5032035;28;20041;-65
2020/12/16 09:25:55;;;;;;;26.50;15.65;;;7.20;87.70;;;;;;5032552;28;20374;-65
2020/12/16 09:28:31;;;;;;;27.55;15.73;;;7.20;87.70;;;;;;5032033;28;20095;-65
2020/12/16 09:30:56;;;;;;;29.08;16.45;;;7.30;87.70;;;;;;5031805;28;20053;-65
2020/12/16 09:33:22;;;;;;;31.60;15.88;;;7.40;87.70;;;;;;5032317;28;20556;-65
2020/12/16 09:35:52;;;;;;;29.08;16.92;;;7.50;87.60;;;;;;5032915;28;20540;-67
2020/12/16 09:38:19;;;;;;;30.02;16.00;;;7.50;87.60;;;;;;5030445;28;20052;-65
2020/12/16 09:40:57;;;;;;;31.52;16.10;;;7.60;87.50;;;;;;5014091;28;20026;-65
2020/12/16 09:43:39;;;;;;;31.55;16.15;;;7.70;87.30;;;;;;5032487;28;20383;-66
2020/12/16 09:46:22;;;;;;;28.92;15.88;;;7.80;87.40;;;;;;5031716;28;20068;-66
2020/12/16 09:48:50;;;;;;;25.23;15.55;;;7.80;87.30;;;;;;5032220;28;20031;-66
2020/12/16 09:51:17;;;;;;;24.88;15.27;;;7.80;87.10;;;;;;5031210;28;20026;-66
2020/12/16 09:53:44;;;;;;;26.08;14.88;;;7.90;87.20;;;;;;5031985;28;20026;-65
2020/12/16 09:56:22;;;;;;;29.42;15.90;;;8.00;87.20;;;;;;5014651;28;20430;-65
2020/12/16 09:58:48;;;;;;;27.55;15.80;;;8.00;87.20;;;;;;5032055;28;20032;-66
2020/12/16 10:01:13;;;;;;;28.33;15.18;;;8.10;87.20;;;;;;5031662;28;20025;-65
2020/12/16 10:03:39;;;;;;;29.20;15.95;;;8.10;87.10;;;;;;5032317;28;20017;-65
2020/12/16 10:06:05;;;;;;;27.92;16.77;;;8.20;87.20;;;;;;5032082;28;20539;-66
2020/12/16 10:08:31;;;;;;;27.15;15.70;;;8.20;87.20;;;;;;5032011;28;20475;-66
2020/12/16 10:10:56;;;;;;;24.90;15.35;;;8.30;87.30;;;;;;5031691;28;20049;-65
2020/12/16 10:13:22;;;;;;;24.40;14.85;;;8.30;87.10;;;;;;5031938;28;20057;-65
2020/12/16 10:15:48;;;;;;;24.63;14.90;;;8.40;87.00;;;;;;5031593;28;20038;-65
2020/12/16 10:18:14;;;;;;;27.98;14.77;;;8.50;86.90;;;;;;5014043;28;20048;-65
2020/12/16 10:20:39;;;;;;;25.10;15.38;;;8.60;86.70;;;;;;5031331;28;20394;-66
2020/12/16 10:23:06;;;;;;;29.33;16.88;;;8.60;86.70;;;;;;5031558;28;20482;-65
2020/12/16 10:25:32;;;;;;;25.75;15.63;;;8.70;86.40;;;;;;5029143;28;20029;-65
2020/12/16 10:27:58;;;;;;;22.10;13.35;;;8.80;86.30;;;;;;5018596;28;20049;-65
2020/12/16 10:30:25;;;;;;;24.42;14.48;;;8.90;86.20;;;;;;5031659;28;20467;-65
2020/12/16 10:32:56;;;;;;;27.77;15.30;;;8.90;86.10;;;;;;5031687;28;20022;-65
2020/12/16 10:35:23;;;;;;;24.73;13.98;;;9.00;86.20;;;;;;5031731;28;20097;-65
2020/12/16 10:37:48;;;;;;;27.08;15.27;;;9.00;86.10;;;;;;5031532;28;20033;-65
2020/12/16 10:40:14;;;;;;;23.67;14.55;;;9.10;86.20;;;;;;5031729;28;20032;-65
2020/12/16 10:42:40;;;;;;;27.00;15.85;;;9.10;86.10;;;;;;5031335;28;20473;-65
2020/12/16 10:45:06;;;;;;;27.63;15.20;;;9.20;86.10;;;;;;5031668;28;20053;-65
2020/12/16 10:47:31;;;;;;;26.33;13.35;;;9.30;85.90;;;;;;5031280;28;20060;-65
2020/12/16 10:49:58;;;;;;;25.92;14.27;;;9.30;85.70;;;;;;5030800;28;20069;-66
2020/12/16 10:52:23;;;;;;;28.45;15.45;;;9.30;85.70;;;;;;5031857;28;20474;-66
2020/12/16 10:54:49;;;;;;;26.75;14.13;;;9.40;85.80;;;;;;5030974;28;20046;-66
2020/12/16 10:57:14;;;;;;;24.20;14.15;;;9.50;85.80;;;;;;5031848;28;20059;-66
2020/12/16 10:59:40;;;;;;;25.75;14.02;;;9.60;85.50;;;;;;5031211;28;20041;-65
2020/12/16 11:02:05;;;;;;;23.65;13.85;;;9.60;85.60;;;;;;5034045;28;20053;-65
2020/12/16 11:04:31;;;;;;;26.90;14.50;;;9.60;85.60;;;;;;5015901;28;20033;-65
2020/12/16 11:06:57;;;;;;;22.65;13.80;;;9.70;85.80;;;;;;5033769;28;20102;-65
2020/12/16 11:09:24;;;;;;;22.00;13.30;;;9.70;85.70;;;;;;5035212;28;20528;-65
2020/12/16 11:11:52;;;;;;;23.05;12.93;;;9.70;85.60;;;;;;5034845;28;20063;-65
2020/12/16 11:14:18;;;;;;;19.98;13.02;;;9.70;85.60;;;;;;5017119;28;20047;-65
2020/12/16 11:16:44;;;;;;;24.05;14.70;;;9.80;85.60;;;;;;5034968;28;20083;-65
2020/12/16 11:19:11;;;;;;;22.92;14.25;;;9.80;85.70;;;;;;5034367;28;20478;-66
2020/12/16 11:21:41;;;;;;;26.15;16.75;;;9.80;85.50;;;;;;5031279;28;20034;-66
2020/12/16 11:24:07;;;;;;;23.55;14.95;;;9.90;85.40;;;;;;5031337;28;20096;-65
2020/12/16 11:26:39;;;;;;;23.30;13.60;;;9.90;85.20;;;;;;5033311;28;20115;-65
2020/12/16 11:29:07;;;;;;;22.50;13.60;;;10.00;85.10;;;;;;5033765;28;20455;-66
2020/12/16 11:31:41;;;;;;;20.48;13.20;;;10.00;85.10;;;;;;5033844;28;20030;-66
2020/12/16 11:34:08;;;;;;;24.55;13.00;;;10.00;85.20;;;;;;5016400;28;20033;-65
2020/12/16 11:36:42;;;;;;;20.33;13.95;;;10.10;85.20;;;;;;5015628;28;20029;-66
2020/12/16 11:39:09;;;;;;;21.45;13.43;;;10.10;85.10;;;;;;5024863;28;20363;-66
2020/12/16 11:41:36;;;;;;;20.15;12.85;;;10.20;85.00;;;;;;5034555;28;20120;-66
2020/12/16 11:44:02;;;;;;;17.92;12.13;;;10.30;84.90;;;;;;5033668;28;20029;-66
2020/12/16 11:46:30;;;;;;;23.38;12.90;;;10.30;84.70;;;;;;5034226;28;20040;-66
2020/12/16 11:48:59;;;;;;;18.42;11.57;;;10.40;84.70;;;;;;5028019;28;20030;-66
2020/12/16 11:51:26;;;;;;;19.70;11.88;;;10.40;84.60;;;;;;5013405;28;20025;-66
2020/12/16 11:53:52;;;;;;;22.20;12.70;;;10.50;84.60;;;;;;5028436;28;20053;-66
2020/12/16 11:56:18;;;;;;;20.25;12.45;;;10.50;84.60;;;;;;5034822;28;20022;-66
2020/12/16 11:58:44;;;;;;;20.92;12.43;;;10.50;84.50;;;;;;5033867;28;20045;-66
2020/12/16 12:01:11;;;;;;;17.90;11.55;;;10.60;84.60;;;;;;5033635;28;20501;-66
2020/12/16 12:03:37;;;;;;;22.60;12.10;;;10.60;84.30;;;;;;5033664;28;20036;-67
2020/12/16 12:06:03;;;;;;;22.05;13.00;;;10.60;84.30;;;;;;5034212;28;20064;-66
2020/12/16 12:08:29;;;;;;;23.63;16.30;;;10.60;84.30;;;;;;5033706;28;20057;-66
2020/12/16 12:10:54;;;;;;;23.30;15.45;;;10.60;84.30;;;;;;5019572;28;20029;-66
2020/12/16 12:13:20;;;;;;;20.58;14.10;;;10.70;84.20;;;;;;5029503;28;20037;-67
2020/12/16 12:15:45;;;;;;;25.92;13.63;;;10.80;84.20;;;;;;5034530;28;20132;-66
2020/12/16 12:18:11;;;;;;;18.88;13.45;;;11.00;84.00;;;;;;5033379;28;20025;-66
2020/12/16 12:20:37;;;;;;;20.75;13.07;;;11.00;83.90;;;;;;5033119;28;20159;-66
2020/12/16 12:23:06;;;;;;;22.63;14.27;;;11.10;83.80;;;;;;5032349;28;20053;-66
2020/12/16 12:25:31;;;;;;;20.75;13.15;;;11.10;83.80;;;;;;5032064;28;20041;-66
2020/12/16 12:27:57;;;;;;;21.25;12.57;;;11.30;83.50;;;;;;5030374;28;20037;-66
2020/12/16 12:30:22;;;;;;;18.25;12.73;;;11.60;83.40;;;;;;5032427;28;20032;-65
2020/12/16 12:32:48;;;;;;;15.55;10.65;;;11.90;83.50;;;;;;5033307;28;20036;-65
2020/12/16 12:35:13;;;;;;;18.42;12.43;;;12.10;82.90;;;;;;5033287;28;20026;-65
2020/12/16 12:37:39;;;;;;;18.02;12.25;;;12.30;82.30;;;;;;5033201;28;20029;-66
2020/12/16 12:40:04;;;;;;;19.55;11.38;;;12.60;82.40;;;;;;5032787;28;20057;-66
2020/12/16 12:42:30;;;;;;;19.80;11.93;;;12.80;82.10;;;;;;5033254;28;20414;-66
2020/12/16 12:44:55;;;;;;;15.80;9.38;;;13.10;82.00;;;;;;5032248;28;20107;-66
2020/12/16 12:47:21;;;;;;;18.58;9.90;;;13.30;81.70;;;;;;5033781;28;20033;-66